createdAt,value
2023-10-25T00:03:47.262Z,100093.06
2023-10-25T00:07:48.898Z,100088.19
2023-10-25T00:11:51.256Z,100086.69
2023-10-25T00:15:52.952Z,100087.41
2023-10-25T00:19:54.542Z,100090.22
2023-10-25T00:23:56.038Z,100090.38
2023-10-25T00:27:57.603Z,100097.03
2023-10-25T00:31:59.329Z,100101.03
2023-10-25T00:36:00.928Z,100102.22
2023-10-25T00:40:02.605Z,100107.19
2023-10-25T00:44:04.767Z,100108.59
2023-10-25T00:48:06.450Z,100110.25
2023-10-25T00:52:08.488Z,100118.59
2023-10-25T00:56:12.439Z,100105.59
2023-10-25T01:00:14.478Z,100115.41
2023-10-25T01:04:16.914Z,100106.91
2023-10-25T01:08:20.761Z,100109.81
2023-10-25T01:12:22.654Z,100103.63
2023-10-25T01:16:24.370Z,100111.19
2023-10-25T01:20:25.939Z,100110.72
2023-10-25T01:24:27.464Z,100113.34
2023-10-25T01:28:29.021Z,100099.63
2023-10-25T01:32:30.563Z,100095.59
2023-10-25T01:36:32.056Z,100100.25
2023-10-25T01:40:33.580Z,100092.81
2023-10-25T01:44:35.081Z,100095.91
2023-10-25T01:48:39.723Z,100099.66
2023-10-25T01:52:41.339Z,100095.09
2023-10-25T01:56:43.886Z,100099.66
2023-10-25T02:00:46.314Z,100096.41
2023-10-25T02:04:47.872Z,100098.50
2023-10-25T02:08:49.420Z,100092.38
2023-10-25T02:12:51.321Z,100087.53
2023-10-25T02:16:53.296Z,100086.03
2023-10-25T02:20:54.934Z,100087.94
2023-10-25T02:24:56.504Z,100096.19
2023-10-25T02:29:00.185Z,100104.19
2023-10-25T02:33:01.699Z,100098.81
2023-10-25T02:37:03.701Z,100101.06
2023-10-25T02:41:05.369Z,100096.50
2023-10-25T02:45:07.380Z,100085.13
2023-10-25T02:49:08.894Z,100085.75
2023-10-25T02:53:10.640Z,100094.13
2023-10-25T02:57:12.462Z,100102.88
2023-10-25T03:01:23.290Z,100105.59
2023-10-25T03:05:24.822Z,100104.38
2023-10-25T03:09:26.895Z,100110.63
2023-10-25T03:13:28.529Z,100111.41
2023-10-25T03:17:32.729Z,100108.59
2023-10-25T03:21:34.634Z,100106.94
2023-10-25T03:25:36.203Z,100096.06
2023-10-25T03:29:38.169Z,100094.78
2023-10-25T03:33:39.793Z,100097.72
2023-10-25T03:37:41.326Z,100104.94
2023-10-25T03:41:44.360Z,100098.34
2023-10-25T03:45:45.982Z,100096.28
2023-10-25T03:49:48.109Z,100094.00
2023-10-25T03:53:49.561Z,100099.53
2023-10-25T03:57:51.171Z,100091.66
2023-10-25T04:01:52.835Z,100098.34
2023-10-25T04:05:55.096Z,100096.53
2023-10-25T04:09:56.659Z,100097.91
2023-10-25T04:13:58.166Z,100094.06
2023-10-25T04:17:59.980Z,100089.81
2023-10-25T04:22:01.808Z,100089.38
2023-10-25T04:26:07.903Z,100095.59
2023-10-25T04:30:10.251Z,100094.69
2023-10-25T04:34:11.911Z,100097.59
2023-10-25T04:38:13.471Z,100097.22
2023-10-25T04:42:14.964Z,100096.22
2023-10-25T04:46:16.952Z,100088.25
2023-10-25T04:50:20.929Z,100101.16
2023-10-25T04:54:22.475Z,100093.91
2023-10-25T04:58:26.058Z,100090.38
2023-10-25T05:02:27.634Z,100086.03
2023-10-25T05:06:29.779Z,100085.88
2023-10-25T05:10:31.877Z,100078.28
2023-10-25T05:14:34.486Z,100077.28
2023-10-25T05:18:36.552Z,100082.84
2023-10-25T05:22:39.795Z,100087.31
2023-10-25T05:26:41.717Z,100087.47
2023-10-25T05:30:43.469Z,100095.53
2023-10-25T05:34:45.311Z,100098.84
2023-10-25T05:38:47.066Z,100097.41
2023-10-25T05:42:49.400Z,100094.25
2023-10-25T05:46:51.885Z,100099.75
2023-10-25T05:50:54.588Z,100100.16
2023-10-25T05:54:56.373Z,100096.47
2023-10-25T05:58:58.154Z,100089.06
2023-10-25T06:03:01.776Z,100102.63
2023-10-25T06:07:03.676Z,100106.69
2023-10-25T06:11:06.329Z,100105.41
2023-10-25T06:15:08.226Z,100100.41
2023-10-25T06:19:10.225Z,100110.97
2023-10-25T06:23:12.635Z,100106.59
2023-10-25T06:27:14.305Z,100105.72
2023-10-25T06:31:15.877Z,100108.72
2023-10-25T06:35:17.451Z,100115.00
2023-10-25T06:39:19.316Z,100116.03
2023-10-25T06:43:21.292Z,100127.91
2023-10-25T06:47:23.049Z,100124.00
2023-10-25T06:51:25.138Z,100131.59
2023-10-25T06:55:27.018Z,100127.16
2023-10-25T06:59:28.782Z,100122.97
2023-10-25T07:03:35.401Z,100129.03
2023-10-25T07:07:39.089Z,100130.38
2023-10-25T07:11:41.168Z,100127.97
2023-10-25T07:15:42.776Z,100129.44
2023-10-25T07:19:47.164Z,100131.50
2023-10-25T07:23:48.663Z,100136.59
2023-10-25T07:27:50.187Z,100129.84
2023-10-25T07:31:52.882Z,100130.53
2023-10-25T07:35:54.491Z,100136.69
2023-10-25T07:39:56.041Z,100133.41
2023-10-25T07:43:57.581Z,100133.78
2023-10-25T07:47:59.098Z,100139.44
2023-10-25T07:52:00.579Z,100133.69
2023-10-25T08:00:10.822Z,100137.47
2023-10-25T08:04:15.328Z,100137.91
2023-10-25T08:08:18.356Z,100137.28
2023-10-25T08:12:19.941Z,100147.13
2023-10-25T08:16:21.504Z,100145.66
2023-10-25T08:20:23.222Z,100139.44
2023-10-25T08:24:27.754Z,100141.41
2023-10-25T08:28:29.274Z,100135.06
2023-10-25T08:32:31.122Z,100135.78
2023-10-25T08:36:32.965Z,100143.38
2023-10-25T08:40:34.827Z,100128.63
2023-10-25T08:44:40.352Z,100132.78
2023-10-25T08:48:43.449Z,100130.75
2023-10-25T08:52:46.224Z,100136.41
2023-10-25T08:56:47.844Z,100135.72
2023-10-25T09:00:50.872Z,100137.81
2023-10-25T09:05:05.106Z,100135.53
2023-10-25T09:09:07.728Z,100130.03
2023-10-25T09:13:14.900Z,100138.41
2023-10-25T09:17:16.680Z,100144.56
2023-10-25T09:21:27.083Z,100137.03
2023-10-25T09:25:31.635Z,100146.97
2023-10-25T09:29:36.831Z,100152.88
2023-10-25T09:33:38.433Z,100149.34
2023-10-25T09:37:40.177Z,100141.59
2023-10-25T09:41:43.312Z,100152.47
2023-10-25T09:45:50.564Z,100141.81
2023-10-25T09:49:59.480Z,100139.16
2023-10-25T09:54:10.022Z,100125.16
2023-10-25T09:58:12.518Z,100121.47
2023-10-25T10:02:28.107Z,100114.25
2023-10-25T10:06:55.067Z,100111.56
2023-10-25T10:11:03.257Z,100102.13
2023-10-25T10:15:05.235Z,100097.22
2023-10-25T10:19:12.598Z,100103.00
2023-10-25T10:23:17.540Z,100114.50
2023-10-25T10:27:27.495Z,100110.25
2023-10-25T10:31:29.032Z,100117.38
2023-10-25T10:35:30.643Z,100111.78
2023-10-25T10:39:32.214Z,100112.03
2023-10-25T10:43:33.794Z,100115.13
2023-10-25T10:47:59.036Z,100112.50
2023-10-25T10:52:04.002Z,100115.56
2023-10-25T10:56:05.570Z,100118.34
2023-10-25T11:00:09.561Z,100113.63
2023-10-25T11:04:11.207Z,100096.19
2023-10-25T11:08:14.636Z,100100.81
2023-10-25T11:12:16.465Z,100097.72
2023-10-25T11:16:18.455Z,100093.41
2023-10-25T11:20:19.969Z,100101.09
2023-10-25T11:24:21.508Z,100088.88
2023-10-25T11:28:24.481Z,100080.91
2023-10-25T11:32:26.034Z,100081.31
2023-10-25T11:36:30.383Z,100070.44
2023-10-25T11:40:46.743Z,100076.97
2023-10-25T11:44:48.372Z,100073.97
2023-10-25T11:48:51.078Z,100070.09
2023-10-25T11:52:52.541Z,100068.84
2023-10-25T11:56:54.043Z,100074.81
2023-10-25T12:00:56.266Z,100077.19
2023-10-25T12:04:58.548Z,100074.91
2023-10-25T12:09:00.757Z,100075.50
2023-10-25T12:13:02.363Z,100072.34
2023-10-25T12:17:06.244Z,100062.22
2023-10-25T12:21:09.485Z,100056.66
2023-10-25T12:25:11.169Z,100044.78
2023-10-25T12:29:12.629Z,100034.81
2023-10-25T12:33:14.172Z,100029.09
2023-10-25T12:37:15.689Z,100025.09
2023-10-25T12:41:17.168Z,100032.72
2023-10-25T12:45:18.721Z,100015.06
2023-10-25T12:49:20.245Z,100007.09
2023-10-25T12:53:21.771Z,100002.94
2023-10-25T12:57:23.237Z,100009.69
2023-10-25T13:01:24.865Z,100006.09
2023-10-25T13:05:26.431Z,99997.72
2023-10-25T13:09:27.933Z,99997.88
2023-10-25T13:13:30.058Z,99996.63
2023-10-25T13:17:31.935Z,99999.06
2023-10-25T13:21:34.520Z,99992.53
2023-10-25T13:25:36.105Z,100000.09
2023-10-25T13:29:39.341Z,100003.22
2023-10-25T13:33:41.030Z,99993.31
2023-10-25T13:37:42.747Z,99989.44
2023-10-25T13:41:45.037Z,99984.69
2023-10-25T13:45:46.772Z,99993.75
2023-10-25T13:49:48.330Z,99973.13
2023-10-25T13:53:49.811Z,99978.97
2023-10-25T13:57:51.330Z,99977.69
2023-10-25T14:01:52.791Z,99973.97
2023-10-25T14:05:54.349Z,99964.94
2023-10-25T14:09:55.874Z,99973.00
2023-10-25T14:13:59.049Z,99967.50
2023-10-25T14:18:00.985Z,99969.47
2023-10-25T14:22:03.660Z,99969.84
2023-10-25T14:26:06.440Z,99976.56
2023-10-25T14:30:09.222Z,99972.97
2023-10-25T14:34:10.791Z,99976.19
2023-10-25T14:38:12.402Z,99977.56
2023-10-25T14:42:13.983Z,99967.38
2023-10-25T14:46:20.018Z,99967.16
2023-10-25T14:50:21.793Z,99954.41
2023-10-25T14:54:23.341Z,99949.38
2023-10-25T14:58:24.815Z,99942.63
2023-10-25T15:02:26.327Z,99937.72
2023-10-25T15:06:29.679Z,99932.97
2023-10-25T15:10:35.767Z,99919.13
2023-10-25T15:14:46.690Z,99919.56
2023-10-25T15:18:54.369Z,99918.09
2023-10-25T15:22:55.969Z,99911.31
2023-10-25T15:26:58.497Z,99901.69
2023-10-25T15:31:02.213Z,99895.44
2023-10-25T15:35:03.980Z,99897.47
2023-10-25T15:39:10.412Z,99896.78
2023-10-25T15:43:12.287Z,99890.25
2023-10-25T15:47:14.804Z,99903.41
2023-10-25T15:51:17.068Z,99904.78
2023-10-25T15:55:18.630Z,99902.59
2023-10-25T15:59:21.016Z,99904.22
2023-10-25T16:03:22.585Z,99910.03
2023-10-25T16:07:24.239Z,99909.78
2023-10-25T16:11:25.850Z,99899.41
2023-10-25T16:15:27.421Z,99886.88
2023-10-25T16:19:31.086Z,99884.19
2023-10-25T16:23:43.254Z,99867.75
2023-10-25T16:27:45.265Z,99868.31
2023-10-25T16:31:46.783Z,99868.56
2023-10-25T16:35:48.313Z,99868.00
2023-10-25T16:39:49.793Z,99868.06
2023-10-25T16:43:51.349Z,99867.19
2023-10-25T16:47:52.849Z,99874.75
2023-10-25T16:51:54.348Z,99873.41
2023-10-25T16:55:55.867Z,99871.00
2023-10-25T16:59:57.463Z,99865.91
2023-10-25T17:03:59.148Z,99862.88
2023-10-25T17:08:00.816Z,99874.63
2023-10-25T17:12:02.639Z,99872.38
2023-10-25T17:16:04.588Z,99864.56
2023-10-25T17:20:07.013Z,99865.88
2023-10-25T17:24:11.241Z,99862.03
2023-10-25T17:28:12.820Z,99866.31
2023-10-25T17:32:14.631Z,99867.94
2023-10-25T17:36:16.376Z,99856.94
2023-10-25T17:40:17.904Z,99858.94
2023-10-25T17:44:21.259Z,99860.41
2023-10-25T17:48:23.552Z,99859.50
2023-10-25T17:52:35.352Z,99852.03
2023-10-25T17:56:45.027Z,99848.91
2023-10-25T18:00:48.109Z,99858.03
2023-10-25T18:04:49.622Z,99855.63
2023-10-25T18:08:51.425Z,99857.41
2023-10-25T18:12:52.901Z,99853.28
2023-10-25T18:16:54.620Z,99845.97
2023-10-25T18:20:58.157Z,99849.19
2023-10-25T18:24:59.897Z,99851.44
2023-10-25T18:29:01.373Z,99841.56
2023-10-25T18:33:02.957Z,99838.56
2023-10-25T18:37:04.900Z,99832.16
2023-10-25T18:41:06.529Z,99833.19
2023-10-25T18:45:08.517Z,99824.28
2023-10-25T18:49:10.180Z,99824.69
2023-10-25T18:53:11.620Z,99823.63
2023-10-25T18:57:13.287Z,99824.50
2023-10-25T19:01:17.380Z,99820.41
2023-10-25T19:06:29.710Z,99822.75
2023-10-25T19:09:49.512Z,99824.91
2023-10-25T19:13:53.979Z,99809.81
2023-10-25T19:17:55.688Z,99804.84
2023-10-25T19:21:57.305Z,99799.56
2023-10-25T19:25:58.964Z,99808.53
2023-10-25T19:30:01.535Z,99809.41
2023-10-25T19:34:04.169Z,99809.53
2023-10-25T19:38:05.709Z,99802.56
2023-10-25T19:42:07.323Z,99811.03
2023-10-25T19:46:10.569Z,99805.91
2023-10-25T19:50:12.293Z,99811.75
2023-10-25T19:54:14.276Z,99805.78
2023-10-25T19:58:15.786Z,99804.03
2023-10-25T20:02:17.284Z,99810.16
2023-10-25T20:06:19.595Z,99801.19
2023-10-25T20:10:21.154Z,99799.91
2023-10-25T20:14:22.818Z,99794.16
2023-10-25T20:18:24.642Z,99787.22
2023-10-25T20:22:26.254Z,99786.03
2023-10-25T20:26:34.427Z,99779.50
2023-10-25T20:30:36.884Z,99771.63
2023-10-25T20:34:38.351Z,99768.66
2023-10-25T20:38:39.818Z,99762.50
2023-10-25T20:42:41.357Z,99750.28
2023-10-25T20:46:46.176Z,99748.44
2023-10-25T20:50:55.870Z,99747.50
2023-10-25T20:54:57.986Z,99746.69
2023-10-25T20:58:59.547Z,99745.41
2023-10-25T21:03:01.121Z,99740.47
2023-10-25T21:07:02.775Z,99737.47
2023-10-25T21:11:04.656Z,99733.63
2023-10-25T21:15:06.908Z,99736.59
2023-10-25T21:19:08.578Z,99739.53
2023-10-25T21:23:10.151Z,99741.09
2023-10-25T21:27:11.763Z,99738.50
2023-10-25T21:31:13.250Z,99731.44
2023-10-25T21:35:14.791Z,99725.38
2023-10-25T21:39:16.400Z,99724.94
2023-10-25T21:43:17.987Z,99721.81
2023-10-25T21:47:19.456Z,99718.25
2023-10-25T21:51:21.051Z,99704.31
2023-10-25T21:55:22.577Z,99706.41
2023-10-25T21:59:51.001Z,99700.22
2023-10-25T22:03:45.791Z,99693.56
2023-10-25T22:07:47.317Z,99695.47
2023-10-25T22:11:50.570Z,99691.19
2023-10-25T22:15:52.075Z,99684.97
2023-10-25T22:19:53.575Z,99680.22
2023-10-25T22:23:55.078Z,99687.13
2023-10-25T22:27:56.891Z,99673.19
2023-10-25T22:31:58.353Z,99670.41
2023-10-25T22:36:04.065Z,99673.34
2023-10-25T22:40:06.437Z,99670.41
2023-10-25T22:44:07.896Z,99673.88
2023-10-25T22:48:09.546Z,99662.78
2023-10-25T22:52:11.177Z,99659.25
2023-10-25T22:56:14.079Z,99653.47
2023-10-25T23:00:15.979Z,99655.16
2023-10-25T23:04:17.613Z,99649.72
2023-10-25T23:08:19.158Z,99647.72
2023-10-25T23:12:21.428Z,99644.31
2023-10-25T23:16:23.162Z,99637.13
2023-10-25T23:20:24.652Z,99629.53
2023-10-25T23:24:26.150Z,99627.59
2023-10-25T23:28:27.733Z,99631.81
2023-10-25T23:32:29.310Z,99625.34
2023-10-25T23:36:30.824Z,99620.88
2023-10-25T23:40:32.310Z,99616.13
2023-10-25T23:44:33.948Z,99625.63
2023-10-25T23:48:35.604Z,99622.03
2023-10-25T23:52:38.340Z,99618.25
2023-10-25T23:56:47.872Z,99608.56
